sensor_id;sensor_type;location;lat;lon;timestamp;P1;durP1;ratioP1;P2;durP2;ratioP2
3274;SDS011;1649;53.672;10.064;2024-01-30T00:02:15;20.13;;;12.23;;
3274;SDS011;1649;53.672;10.064;2024-01-30T00:04:41;18.00;;;11.63;;
3274;SDS011;1649;53.672;10.064;2024-01-30T00:07:07;19.33;;;11.70;;
3274;SDS011;1649;53.672;10.064;2024-01-30T00:09:33;17.90;;;11.10;;
3274;SDS011;1649;53.672;10.064;2024-01-30T00:11:58;19.43;;;11.93;;
3274;SDS011;1649;53.672;10.064;2024-01-30T00:14:24;16.70;;;11.23;;
3274;SDS011;1649;53.672;10.064;2024-01-30T00:16:50;18.67;;;10.80;;
3274;SDS011;1649;53.672;10.064;2024-01-30T00:19:16;18.40;;;11.30;;
3274;SDS011;1649;53.672;10.064;2024-01-30T00:21:42;18.97;;;11.47;;
3274;SDS011;1649;53.672;10.064;2024-01-30T00:24:07;18.20;;;11.40;;
3274;SDS011;1649;53.672;10.064;2024-01-30T00:26:33;19.70;;;11.80;;
3274;SDS011;1649;53.672;10.064;2024-01-30T00:28:59;17.83;;;11.63;;
3274;SDS011;1649;53.672;10.064;2024-01-30T00:31:24;18.53;;;11.73;;
3274;SDS011;1649;53.672;10.064;2024-01-30T00:33:50;18.30;;;11.87;;
3274;SDS011;1649;53.672;10.064;2024-01-30T00:36:15;15.63;;;10.67;;
3274;SDS011;1649;53.672;10.064;2024-01-30T00:38:41;18.57;;;12.27;;
3274;SDS011;1649;53.672;10.064;2024-01-30T00:41:07;18.23;;;11.50;;
3274;SDS011;1649;53.672;10.064;2024-01-30T00:43:33;16.00;;;10.40;;
3274;SDS011;1649;53.672;10.064;2024-01-30T00:45:59;15.53;;;10.80;;
3274;SDS011;1649;53.672;10.064;2024-01-30T00:48:24;18.10;;;11.77;;
3274;SDS011;1649;53.672;10.064;2024-01-30T00:50:50;19.07;;;11.63;;
3274;SDS011;1649;53.672;10.064;2024-01-30T00:53:15;16.67;;;10.63;;
3274;SDS011;1649;53.672;10.064;2024-01-30T00:55:41;15.77;;;10.40;;
3274;SDS011;1649;53.672;10.064;2024-01-30T00:58:06;20.50;;;11.20;;
3274;SDS011;1649;53.672;10.064;2024-01-30T01:00:32;15.57;;;10.33;;
3274;SDS011;1649;53.672;10.064;2024-01-30T01:02:58;16.57;;;10.43;;
3274;SDS011;1649;53.672;10.064;2024-01-30T01:05:24;17.80;;;10.53;;
3274;SDS011;1649;53.672;10.064;2024-01-30T01:07:50;18.60;;;11.30;;
3274;SDS011;1649;53.672;10.064;2024-01-30T01:10:18;18.43;;;11.23;;
3274;SDS011;1649;53.672;10.064;2024-01-30T01:12:44;16.40;;;10.17;;
3274;SDS011;1649;53.672;10.064;2024-01-30T01:15:10;14.20;;;10.10;;
3274;SDS011;1649;53.672;10.064;2024-01-30T01:17:36;17.27;;;10.57;;
3274;SDS011;1649;53.672;10.064;2024-01-30T01:20:03;14.83;;;9.00;;
3274;SDS011;1649;53.672;10.064;2024-01-30T01:22:30;16.87;;;10.33;;
3274;SDS011;1649;53.672;10.064;2024-01-30T01:24:56;15.10;;;9.43;;
3274;SDS011;1649;53.672;10.064;2024-01-30T01:27:21;19.00;;;10.27;;
3274;SDS011;1649;53.672;10.064;2024-01-30T01:29:47;15.17;;;10.27;;
3274;SDS011;1649;53.672;10.064;2024-01-30T01:32:12;18.27;;;9.80;;
3274;SDS011;1649;53.672;10.064;2024-01-30T01:34:38;19.33;;;11.43;;
3274;SDS011;1649;53.672;10.064;2024-01-30T01:37:03;17.07;;;10.70;;
3274;SDS011;1649;53.672;10.064;2024-01-30T01:39:29;15.30;;;9.70;;
3274;SDS011;1649;53.672;10.064;2024-01-30T01:41:54;18.53;;;9.77;;
3274;SDS011;1649;53.672;10.064;2024-01-30T01:44:20;16.97;;;10.70;;
3274;SDS011;1649;53.672;10.064;2024-01-30T01:46:45;15.37;;;9.70;;
3274;SDS011;1649;53.672;10.064;2024-01-30T01:49:11;18.80;;;10.50;;
3274;SDS011;1649;53.672;10.064;2024-01-30T01:51:37;17.70;;;10.17;;
3274;SDS011;1649;53.672;10.064;2024-01-30T01:54:05;18.90;;;10.47;;
3274;SDS011;1649;53.672;10.064;2024-01-30T01:56:32;20.97;;;10.87;;
3274;SDS011;1649;53.672;10.064;2024-01-30T01:59:06;16.40;;;10.80;;
3274;SDS011;1649;53.672;10.064;2024-01-30T02:01:37;16.50;;;9.83;;
3274;SDS011;1649;53.672;10.064;2024-01-30T02:04:04;18.90;;;10.37;;
3274;SDS011;1649;53.672;10.064;2024-01-30T02:06:29;15.50;;;9.93;;
3274;SDS011;1649;53.672;10.064;2024-01-30T02:08:55;17.40;;;10.77;;
3274;SDS011;1649;53.672;10.064;2024-01-30T02:11:21;15.00;;;9.80;;
3274;SDS011;1649;53.672;10.064;2024-01-30T02:13:48;16.13;;;10.10;;
3274;SDS011;1649;53.672;10.064;2024-01-30T02:16:15;18.87;;;9.30;;
3274;SDS011;1649;53.672;10.064;2024-01-30T02:18:42;19.70;;;11.13;;
3274;SDS011;1649;53.672;10.064;2024-01-30T02:21:10;17.80;;;10.27;;
3274;SDS011;1649;53.672;10.064;2024-01-30T02:23:35;15.00;;;10.33;;
3274;SDS011;1649;53.672;10.064;2024-01-30T02:26:02;17.53;;;10.17;;
3274;SDS011;1649;53.672;10.064;2024-01-30T02:28:28;17.43;;;10.53;;
3274;SDS011;1649;53.672;10.064;2024-01-30T02:30:53;14.30;;;9.43;;
3274;SDS011;1649;53.672;10.064;2024-01-30T02:33:19;13.10;;;9.80;;
3274;SDS011;1649;53.672;10.064;2024-01-30T02:35:46;24.53;;;9.87;;
3274;SDS011;1649;53.672;10.064;2024-01-30T02:38:12;16.93;;;10.00;;
3274;SDS011;1649;53.672;10.064;2024-01-30T02:40:37;15.40;;;9.60;;
3274;SDS011;1649;53.672;10.064;2024-01-30T02:43:03;14.60;;;9.97;;
3274;SDS011;1649;53.672;10.064;2024-01-30T02:45:30;16.13;;;9.27;;
3274;SDS011;1649;53.672;10.064;2024-01-30T02:47:55;19.07;;;10.50;;
3274;SDS011;1649;53.672;10.064;2024-01-30T02:50:21;17.83;;;11.10;;
3274;SDS011;1649;53.672;10.064;2024-01-30T02:52:46;17.30;;;10.33;;
3274;SDS011;1649;53.672;10.064;2024-01-30T02:55:11;14.97;;;10.10;;
3274;SDS011;1649;53.672;10.064;2024-01-30T02:57:40;14.67;;;9.43;;
3274;SDS011;1649;53.672;10.064;2024-01-30T03:00:05;14.90;;;10.00;;
3274;SDS011;1649;53.672;10.064;2024-01-30T03:02:34;16.00;;;9.20;;
3274;SDS011;1649;53.672;10.064;2024-01-30T03:04:59;16.73;;;10.70;;
3274;SDS011;1649;53.672;10.064;2024-01-30T03:07:25;15.87;;;9.77;;
3274;SDS011;1649;53.672;10.064;2024-01-30T03:09:50;19.97;;;10.43;;
3274;SDS011;1649;53.672;10.064;2024-01-30T03:12:16;18.00;;;9.80;;
3274;SDS011;1649;53.672;10.064;2024-01-30T03:14:41;18.93;;;11.30;;
3274;SDS011;1649;53.672;10.064;2024-01-30T03:17:07;14.33;;;9.43;;
3274;SDS011;1649;53.672;10.064;2024-01-30T03:19:32;15.70;;;9.90;;
3274;SDS011;1649;53.672;10.064;2024-01-30T03:21:58;16.47;;;9.80;;
3274;SDS011;1649;53.672;10.064;2024-01-30T03:24:24;16.73;;;10.43;;
3274;SDS011;1649;53.672;10.064;2024-01-30T03:26:49;18.00;;;9.90;;
3274;SDS011;1649;53.672;10.064;2024-01-30T03:29:15;20.30;;;10.93;;
3274;SDS011;1649;53.672;10.064;2024-01-30T03:31:40;15.83;;;11.10;;
3274;SDS011;1649;53.672;10.064;2024-01-30T03:34:06;21.37;;;11.90;;
3274;SDS011;1649;53.672;10.064;2024-01-30T03:36:31;15.20;;;10.23;;
3274;SDS011;1649;53.672;10.064;2024-01-30T03:38:59;17.30;;;10.90;;
3274;SDS011;1649;53.672;10.064;2024-01-30T03:41:25;17.10;;;10.47;;
3274;SDS011;1649;53.672;10.064;2024-01-30T03:43:50;19.03;;;10.93;;
3274;SDS011;1649;53.672;10.064;2024-01-30T03:46:16;23.03;;;12.30;;
3274;SDS011;1649;53.672;10.064;2024-01-30T03:48:42;18.63;;;11.60;;
3274;SDS011;1649;53.672;10.064;2024-01-30T03:51:07;18.90;;;11.90;;
3274;SDS011;1649;53.672;10.064;2024-01-30T03:53:33;16.07;;;10.87;;
3274;SDS011;1649;53.672;10.064;2024-01-30T03:55:58;18.73;;;11.97;;
3274;SDS011;1649;53.672;10.064;2024-01-30T03:58:24;18.93;;;12.17;;
3274;SDS011;1649;53.672;10.064;2024-01-30T04:00:49;19.63;;;12.00;;
3274;SDS011;1649;53.672;10.064;2024-01-30T04:03:15;16.00;;;11.40;;
3274;SDS011;1649;53.672;10.064;2024-01-30T04:05:41;20.40;;;11.20;;
3274;SDS011;1649;53.672;10.064;2024-01-30T04:08:06;20.10;;;12.80;;
3274;SDS011;1649;53.672;10.064;2024-01-30T04:10:32;20.00;;;12.13;;
3274;SDS011;1649;53.672;10.064;2024-01-30T04:12:58;18.33;;;11.70;;
3274;SDS011;1649;53.672;10.064;2024-01-30T04:15:24;16.23;;;11.30;;
3274;SDS011;1649;53.672;10.064;2024-01-30T04:17:50;20.77;;;12.30;;
3274;SDS011;1649;53.672;10.064;2024-01-30T04:20:15;16.60;;;11.40;;
3274;SDS011;1649;53.672;10.064;2024-01-30T04:22:42;19.23;;;11.30;;
3274;SDS011;1649;53.672;10.064;2024-01-30T04:25:09;21.40;;;12.13;;
3274;SDS011;1649;53.672;10.064;2024-01-30T04:27:34;20.10;;;12.63;;
3274;SDS011;1649;53.672;10.064;2024-01-30T04:30:00;18.00;;;10.80;;
3274;SDS011;1649;53.672;10.064;2024-01-30T04:32:25;18.40;;;11.27;;
3274;SDS011;1649;53.672;10.064;2024-01-30T04:34:51;15.87;;;11.30;;
3274;SDS011;1649;53.672;10.064;2024-01-30T04:37:16;17.03;;;10.50;;
3274;SDS011;1649;53.672;10.064;2024-01-30T04:39:42;20.03;;;11.10;;
3274;SDS011;1649;53.672;10.064;2024-01-30T04:42:07;22.07;;;12.00;;
3274;SDS011;1649;53.672;10.064;2024-01-30T04:44:33;21.00;;;10.97;;
3274;SDS011;1649;53.672;10.064;2024-01-30T04:46:58;17.60;;;11.20;;
3274;SDS011;1649;53.672;10.064;2024-01-30T04:49:26;17.83;;;11.20;;
3274;SDS011;1649;53.672;10.064;2024-01-30T04:51:52;19.07;;;10.93;;
3274;SDS011;1649;53.672;10.064;2024-01-30T04:54:17;20.60;;;12.00;;
3274;SDS011;1649;53.672;10.064;2024-01-30T04:56:43;16.70;;;12.53;;
3274;SDS011;1649;53.672;10.064;2024-01-30T04:59:08;19.63;;;12.93;;
3274;SDS011;1649;53.672;10.064;2024-01-30T05:01:34;23.30;;;12.57;;
3274;SDS011;1649;53.672;10.064;2024-01-30T05:03:59;25.77;;;12.73;;
3274;SDS011;1649;53.672;10.064;2024-01-30T05:06:26;18.80;;;12.00;;
3274;SDS011;1649;53.672;10.064;2024-01-30T05:08:52;20.23;;;13.07;;
3274;SDS011;1649;53.672;10.064;2024-01-30T05:11:17;26.70;;;12.43;;
3274;SDS011;1649;53.672;10.064;2024-01-30T05:13:43;22.20;;;13.00;;
3274;SDS011;1649;53.672;10.064;2024-01-30T05:16:09;22.27;;;13.50;;
3274;SDS011;1649;53.672;10.064;2024-01-30T05:18:34;19.60;;;13.57;;
3274;SDS011;1649;53.672;10.064;2024-01-30T05:20:59;22.80;;;12.90;;
3274;SDS011;1649;53.672;10.064;2024-01-30T05:23:25;20.80;;;12.00;;
3274;SDS011;1649;53.672;10.064;2024-01-30T05:25:50;21.60;;;13.57;;
3274;SDS011;1649;53.672;10.064;2024-01-30T05:28:16;23.57;;;14.40;;
3274;SDS011;1649;53.672;10.064;2024-01-30T05:30:42;20.33;;;13.07;;
3274;SDS011;1649;53.672;10.064;2024-01-30T05:33:07;22.30;;;13.37;;
3274;SDS011;1649;53.672;10.064;2024-01-30T05:35:33;26.33;;;15.73;;
3274;SDS011;1649;53.672;10.064;2024-01-30T05:37:58;25.53;;;14.60;;
3274;SDS011;1649;53.672;10.064;2024-01-30T05:40:24;25.53;;;15.03;;
3274;SDS011;1649;53.672;10.064;2024-01-30T05:42:49;23.57;;;14.50;;
3274;SDS011;1649;53.672;10.064;2024-01-30T05:45:14;25.10;;;14.33;;
3274;SDS011;1649;53.672;10.064;2024-01-30T05:47:40;24.90;;;15.30;;
3274;SDS011;1649;53.672;10.064;2024-01-30T05:50:06;24.50;;;14.93;;
3274;SDS011;1649;53.672;10.064;2024-01-30T05:52:32;21.40;;;13.27;;
3274;SDS011;1649;53.672;10.064;2024-01-30T05:54:57;20.90;;;13.83;;
3274;SDS011;1649;53.672;10.064;2024-01-30T05:57:22;22.80;;;15.23;;
3274;SDS011;1649;53.672;10.064;2024-01-30T05:59:48;31.80;;;16.03;;
3274;SDS011;1649;53.672;10.064;2024-01-30T06:02:13;28.70;;;15.37;;
3274;SDS011;1649;53.672;10.064;2024-01-30T06:04:39;25.33;;;15.40;;
3274;SDS011;1649;53.672;10.064;2024-01-30T06:07:05;23.00;;;13.57;;
3274;SDS011;1649;53.672;10.064;2024-01-30T06:09:31;29.70;;;12.97;;
3274;SDS011;1649;53.672;10.064;2024-01-30T06:11:57;25.83;;;15.37;;
3274;SDS011;1649;53.672;10.064;2024-01-30T06:14:22;24.50;;;14.87;;
3274;SDS011;1649;53.672;10.064;2024-01-30T06:16:48;24.47;;;14.40;;
3274;SDS011;1649;53.672;10.064;2024-01-30T06:19:13;27.40;;;16.80;;
3274;SDS011;1649;53.672;10.064;2024-01-30T06:21:39;26.63;;;14.60;;
3274;SDS011;1649;53.672;10.064;2024-01-30T06:24:05;22.93;;;14.70;;
3274;SDS011;1649;53.672;10.064;2024-01-30T06:26:30;24.43;;;15.00;;
3274;SDS011;1649;53.672;10.064;2024-01-30T06:28:56;25.87;;;14.60;;
3274;SDS011;1649;53.672;10.064;2024-01-30T06:31:21;24.03;;;14.13;;
3274;SDS011;1649;53.672;10.064;2024-01-30T06:33:47;22.60;;;14.73;;
3274;SDS011;1649;53.672;10.064;2024-01-30T06:36:13;23.77;;;14.50;;
3274;SDS011;1649;53.672;10.064;2024-01-30T06:38:39;22.90;;;12.40;;
3274;SDS011;1649;53.672;10.064;2024-01-30T06:41:05;26.20;;;14.30;;
3274;SDS011;1649;53.672;10.064;2024-01-30T06:43:30;22.53;;;14.20;;
3274;SDS011;1649;53.672;10.064;2024-01-30T06:45:56;24.60;;;16.10;;
3274;SDS011;1649;53.672;10.064;2024-01-30T06:48:21;23.87;;;14.80;;
3274;SDS011;1649;53.672;10.064;2024-01-30T06:50:47;29.83;;;15.17;;
3274;SDS011;1649;53.672;10.064;2024-01-30T06:53:14;25.53;;;15.60;;
3274;SDS011;1649;53.672;10.064;2024-01-30T06:55:39;22.87;;;13.97;;
3274;SDS011;1649;53.672;10.064;2024-01-30T06:58:05;25.57;;;15.17;;
3274;SDS011;1649;53.672;10.064;2024-01-30T07:00:31;25.60;;;15.17;;
3274;SDS011;1649;53.672;10.064;2024-01-30T07:02:56;25.13;;;14.63;;
3274;SDS011;1649;53.672;10.064;2024-01-30T07:05:21;20.50;;;14.00;;
3274;SDS011;1649;53.672;10.064;2024-01-30T07:07:47;26.87;;;14.97;;
3274;SDS011;1649;53.672;10.064;2024-01-30T07:10:12;23.50;;;15.10;;
3274;SDS011;1649;53.672;10.064;2024-01-30T07:12:38;23.90;;;14.03;;
3274;SDS011;1649;53.672;10.064;2024-01-30T07:15:04;24.80;;;14.60;;
3274;SDS011;1649;53.672;10.064;2024-01-30T07:17:32;22.90;;;14.50;;
3274;SDS011;1649;53.672;10.064;2024-01-30T07:19:58;27.30;;;17.67;;
3274;SDS011;1649;53.672;10.064;2024-01-30T07:22:24;24.77;;;14.80;;
3274;SDS011;1649;53.672;10.064;2024-01-30T07:24:49;24.40;;;15.10;;
3274;SDS011;1649;53.672;10.064;2024-01-30T07:27:16;24.67;;;14.80;;
3274;SDS011;1649;53.672;10.064;2024-01-30T07:29:42;24.83;;;14.30;;
3274;SDS011;1649;53.672;10.064;2024-01-30T07:32:08;22.00;;;14.87;;
3274;SDS011;1649;53.672;10.064;2024-01-30T07:34:34;23.40;;;15.23;;
3274;SDS011;1649;53.672;10.064;2024-01-30T07:36:59;21.93;;;15.07;;
3274;SDS011;1649;53.672;10.064;2024-01-30T07:39:25;25.97;;;16.80;;
3274;SDS011;1649;53.672;10.064;2024-01-30T07:41:50;25.83;;;15.13;;
3274;SDS011;1649;53.672;10.064;2024-01-30T07:44:16;24.27;;;15.97;;
3274;SDS011;1649;53.672;10.064;2024-01-30T07:46:41;21.60;;;14.80;;
3274;SDS011;1649;53.672;10.064;2024-01-30T07:49:06;24.77;;;15.33;;
3274;SDS011;1649;53.672;10.064;2024-01-30T07:51:32;26.43;;;15.80;;
3274;SDS011;1649;53.672;10.064;2024-01-30T07:53:58;23.80;;;15.63;;
3274;SDS011;1649;53.672;10.064;2024-01-30T07:56:23;22.27;;;15.40;;
3274;SDS011;1649;53.672;10.064;2024-01-30T07:58:49;23.53;;;16.00;;
3274;SDS011;1649;53.672;10.064;2024-01-30T08:01:15;25.43;;;16.00;;
3274;SDS011;1649;53.672;10.064;2024-01-30T08:03:41;32.10;;;16.20;;
3274;SDS011;1649;53.672;10.064;2024-01-30T08:06:06;25.47;;;15.27;;
3274;SDS011;1649;53.672;10.064;2024-01-30T08:08:32;30.23;;;16.33;;
3274;SDS011;1649;53.672;10.064;2024-01-30T08:10:58;24.57;;;14.57;;
3274;SDS011;1649;53.672;10.064;2024-01-30T08:13:23;25.10;;;16.87;;
3274;SDS011;1649;53.672;10.064;2024-01-30T08:15:49;22.97;;;15.57;;
3274;SDS011;1649;53.672;10.064;2024-01-30T08:18:14;27.13;;;16.13;;
3274;SDS011;1649;53.672;10.064;2024-01-30T08:20:40;24.40;;;15.97;;
3274;SDS011;1649;53.672;10.064;2024-01-30T08:23:05;26.23;;;15.33;;
3274;SDS011;1649;53.672;10.064;2024-01-30T08:25:31;23.03;;;14.43;;
3274;SDS011;1649;53.672;10.064;2024-01-30T08:27:56;23.03;;;15.50;;
3274;SDS011;1649;53.672;10.064;2024-01-30T08:30:22;27.07;;;15.37;;
3274;SDS011;1649;53.672;10.064;2024-01-30T08:32:48;18.57;;;11.33;;
3274;SDS011;1649;53.672;10.064;2024-01-30T08:35:13;28.60;;;16.00;;
3274;SDS011;1649;53.672;10.064;2024-01-30T08:37:40;25.77;;;15.93;;
3274;SDS011;1649;53.672;10.064;2024-01-30T08:40:07;24.20;;;15.10;;
3274;SDS011;1649;53.672;10.064;2024-01-30T08:42:33;27.90;;;16.37;;
3274;SDS011;1649;53.672;10.064;2024-01-30T08:44:59;24.87;;;15.23;;
3274;SDS011;1649;53.672;10.064;2024-01-30T08:47:24;23.90;;;16.43;;
3274;SDS011;1649;53.672;10.064;2024-01-30T08:49:50;26.00;;;15.67;;
3274;SDS011;1649;53.672;10.064;2024-01-30T08:52:16;25.80;;;16.10;;
3274;SDS011;1649;53.672;10.064;2024-01-30T08:54:42;24.40;;;15.13;;
3274;SDS011;1649;53.672;10.064;2024-01-30T08:57:08;26.00;;;15.23;;
3274;SDS011;1649;53.672;10.064;2024-01-30T08:59:33;25.90;;;15.70;;
3274;SDS011;1649;53.672;10.064;2024-01-30T09:01:59;24.00;;;14.23;;
3274;SDS011;1649;53.672;10.064;2024-01-30T09:04:24;21.20;;;14.77;;
3274;SDS011;1649;53.672;10.064;2024-01-30T09:06:50;23.13;;;14.07;;
3274;SDS011;1649;53.672;10.064;2024-01-30T09:09:16;25.40;;;15.87;;
3274;SDS011;1649;53.672;10.064;2024-01-30T09:11:42;24.27;;;15.07;;
3274;SDS011;1649;53.672;10.064;2024-01-30T09:14:08;23.00;;;14.70;;
3274;SDS011;1649;53.672;10.064;2024-01-30T09:16:33;26.70;;;14.90;;
3274;SDS011;1649;53.672;10.064;2024-01-30T09:18:59;23.73;;;13.27;;
3274;SDS011;1649;53.672;10.064;2024-01-30T09:21:24;24.50;;;16.07;;
3274;SDS011;1649;53.672;10.064;2024-01-30T09:23:51;21.63;;;14.40;;
3274;SDS011;1649;53.672;10.064;2024-01-30T09:26:19;23.00;;;14.83;;
3274;SDS011;1649;53.672;10.064;2024-01-30T09:28:45;21.63;;;14.30;;
3274;SDS011;1649;53.672;10.064;2024-01-30T09:31:10;25.67;;;15.87;;
3274;SDS011;1649;53.672;10.064;2024-01-30T09:33:39;23.50;;;15.23;;
3274;SDS011;1649;53.672;10.064;2024-01-30T09:36:07;25.67;;;16.23;;
3274;SDS011;1649;53.672;10.064;2024-01-30T09:38:33;24.40;;;15.13;;
3274;SDS011;1649;53.672;10.064;2024-01-30T09:40:59;23.77;;;13.83;;
3274;SDS011;1649;53.672;10.064;2024-01-30T09:43:33;23.80;;;14.40;;
3274;SDS011;1649;53.672;10.064;2024-01-30T09:46:01;21.80;;;14.63;;
3274;SDS011;1649;53.672;10.064;2024-01-30T09:48:28;22.77;;;14.30;;
3274;SDS011;1649;53.672;10.064;2024-01-30T09:50:55;25.47;;;12.57;;
3274;SDS011;1649;53.672;10.064;2024-01-30T09:53:22;35.50;;;15.37;;
3274;SDS011;1649;53.672;10.064;2024-01-30T09:55:48;24.63;;;15.10;;
3274;SDS011;1649;53.672;10.064;2024-01-30T09:58:15;28.03;;;15.30;;
3274;SDS011;1649;53.672;10.064;2024-01-30T10:00:41;22.53;;;14.10;;
3274;SDS011;1649;53.672;10.064;2024-01-30T10:03:07;23.10;;;14.90;;
3274;SDS011;1649;53.672;10.064;2024-01-30T10:05:33;25.23;;;15.07;;
3274;SDS011;1649;53.672;10.064;2024-01-30T10:08:05;20.80;;;13.47;;
3274;SDS011;1649;53.672;10.064;2024-01-30T10:10:31;25.77;;;15.47;;
3274;SDS011;1649;53.672;10.064;2024-01-30T10:12:57;22.70;;;14.23;;
3274;SDS011;1649;53.672;10.064;2024-01-30T10:15:22;27.20;;;15.27;;
3274;SDS011;1649;53.672;10.064;2024-01-30T10:17:49;24.83;;;13.10;;
3274;SDS011;1649;53.672;10.064;2024-01-30T10:20:14;22.00;;;13.83;;
3274;SDS011;1649;53.672;10.064;2024-01-30T10:22:40;24.73;;;13.80;;
3274;SDS011;1649;53.672;10.064;2024-01-30T10:25:09;23.33;;;13.70;;
3274;SDS011;1649;53.672;10.064;2024-01-30T10:27:34;19.87;;;13.20;;
3274;SDS011;1649;53.672;10.064;2024-01-30T10:30:00;22.47;;;14.23;;
3274;SDS011;1649;53.672;10.064;2024-01-30T10:32:26;24.53;;;14.60;;
3274;SDS011;1649;53.672;10.064;2024-01-30T10:34:52;21.77;;;14.53;;
3274;SDS011;1649;53.672;10.064;2024-01-30T10:37:17;26.57;;;14.27;;
3274;SDS011;1649;53.672;10.064;2024-01-30T10:39:46;27.60;;;14.60;;
3274;SDS011;1649;53.672;10.064;2024-01-30T10:42:21;21.87;;;13.83;;
3274;SDS011;1649;53.672;10.064;2024-01-30T10:45:00;26.70;;;15.33;;
3274;SDS011;1649;53.672;10.064;2024-01-30T10:47:33;25.10;;;14.30;;
3274;SDS011;1649;53.672;10.064;2024-01-30T10:50:03;21.73;;;13.20;;
3274;SDS011;1649;53.672;10.064;2024-01-30T10:52:29;21.10;;;12.30;;
3274;SDS011;1649;53.672;10.064;2024-01-30T10:54:56;24.17;;;13.83;;
3274;SDS011;1649;53.672;10.064;2024-01-30T10:57:25;22.30;;;14.60;;
3274;SDS011;1649;53.672;10.064;2024-01-30T10:59:58;21.33;;;13.80;;
3274;SDS011;1649;53.672;10.064;2024-01-30T11:02:25;21.20;;;13.50;;
3274;SDS011;1649;53.672;10.064;2024-01-30T11:04:55;23.53;;;14.77;;
3274;SDS011;1649;53.672;10.064;2024-01-30T11:07:25;20.70;;;13.20;;
3274;SDS011;1649;53.672;10.064;2024-01-30T11:09:53;19.63;;;13.67;;
3274;SDS011;1649;53.672;10.064;2024-01-30T11:12:28;23.07;;;14.20;;
3274;SDS011;1649;53.672;10.064;2024-01-30T11:20:27;23.83;;;13.80;;
3274;SDS011;1649;53.672;10.064;2024-01-30T11:22:57;24.20;;;13.80;;
3274;SDS011;1649;53.672;10.064;2024-01-30T11:25:24;22.87;;;13.53;;
3274;SDS011;1649;53.672;10.064;2024-01-30T11:27:51;25.27;;;13.37;;
3274;SDS011;1649;53.672;10.064;2024-01-30T11:30:21;19.43;;;13.20;;
3274;SDS011;1649;53.672;10.064;2024-01-30T11:35:32;28.97;;;13.83;;
3274;SDS011;1649;53.672;10.064;2024-01-30T11:37:59;23.37;;;14.10;;
3274;SDS011;1649;53.672;10.064;2024-01-30T11:40:28;21.93;;;11.77;;
3274;SDS011;1649;53.672;10.064;2024-01-30T11:42:59;22.20;;;13.50;;
3274;SDS011;1649;53.672;10.064;2024-01-30T11:45:26;21.20;;;13.03;;
3274;SDS011;1649;53.672;10.064;2024-01-30T11:47:52;23.67;;;14.27;;
3274;SDS011;1649;53.672;10.064;2024-01-30T11:50:18;22.77;;;14.30;;
3274;SDS011;1649;53.672;10.064;2024-01-30T11:52:44;23.67;;;14.20;;
3274;SDS011;1649;53.672;10.064;2024-01-30T11:55:10;22.20;;;13.53;;
3274;SDS011;1649;53.672;10.064;2024-01-30T11:57:36;20.97;;;13.50;;
3274;SDS011;1649;53.672;10.064;2024-01-30T12:00:02;24.47;;;14.00;;
3274;SDS011;1649;53.672;10.064;2024-01-30T12:02:35;21.40;;;12.93;;
3274;SDS011;1649;53.672;10.064;2024-01-30T12:05:05;20.77;;;13.30;;
3274;SDS011;1649;53.672;10.064;2024-01-30T12:07:31;22.87;;;13.77;;
3274;SDS011;1649;53.672;10.064;2024-01-30T12:10:01;21.50;;;13.43;;
3274;SDS011;1649;53.672;10.064;2024-01-30T12:12:27;21.37;;;14.00;;
3274;SDS011;1649;53.672;10.064;2024-01-30T12:14:54;22.20;;;14.03;;
3274;SDS011;1649;53.672;10.064;2024-01-30T12:17:30;24.90;;;15.00;;
3274;SDS011;1649;53.672;10.064;2024-01-30T12:20:03;26.33;;;13.30;;
3274;SDS011;1649;53.672;10.064;2024-01-30T12:22:29;22.00;;;13.30;;
3274;SDS011;1649;53.672;10.064;2024-01-30T12:24:55;24.67;;;14.37;;
3274;SDS011;1649;53.672;10.064;2024-01-30T12:27:20;22.30;;;14.40;;
3274;SDS011;1649;53.672;10.064;2024-01-30T12:29:46;19.90;;;13.47;;
3274;SDS011;1649;53.672;10.064;2024-01-30T12:32:15;22.67;;;12.90;;
3274;SDS011;1649;53.672;10.064;2024-01-30T12:34:41;20.03;;;13.10;;
3274;SDS011;1649;53.672;10.064;2024-01-30T12:37:07;24.83;;;13.70;;
3274;SDS011;1649;53.672;10.064;2024-01-30T12:39:34;20.03;;;12.97;;
3274;SDS011;1649;53.672;10.064;2024-01-30T12:42:00;21.13;;;13.43;;
3274;SDS011;1649;53.672;10.064;2024-01-30T12:44:25;19.30;;;13.53;;
3274;SDS011;1649;53.672;10.064;2024-01-30T12:46:51;18.87;;;14.10;;
3274;SDS011;1649;53.672;10.064;2024-01-30T12:49:17;20.30;;;13.33;;
3274;SDS011;1649;53.672;10.064;2024-01-30T12:51:42;22.60;;;13.50;;
3274;SDS011;1649;53.672;10.064;2024-01-30T12:54:08;24.47;;;14.37;;
3274;SDS011;1649;53.672;10.064;2024-01-30T12:56:33;21.47;;;13.77;;
3274;SDS011;1649;53.672;10.064;2024-01-30T12:58:59;24.90;;;13.30;;
3274;SDS011;1649;53.672;10.064;2024-01-30T13:01:24;23.70;;;14.43;;
3274;SDS011;1649;53.672;10.064;2024-01-30T13:03:50;18.00;;;12.20;;
3274;SDS011;1649;53.672;10.064;2024-01-30T13:06:15;18.63;;;11.63;;
3274;SDS011;1649;53.672;10.064;2024-01-30T13:08:41;21.93;;;12.23;;
3274;SDS011;1649;53.672;10.064;2024-01-30T13:11:06;20.93;;;12.83;;
3274;SDS011;1649;53.672;10.064;2024-01-30T13:13:32;22.57;;;11.30;;
3274;SDS011;1649;53.672;10.064;2024-01-30T13:15:57;20.57;;;12.40;;
3274;SDS011;1649;53.672;10.064;2024-01-30T13:18:23;16.20;;;10.30;;
3274;SDS011;1649;53.672;10.064;2024-01-30T13:20:49;16.40;;;11.20;;
3274;SDS011;1649;53.672;10.064;2024-01-30T13:23:14;17.63;;;10.63;;
3274;SDS011;1649;53.672;10.064;2024-01-30T13:25:40;20.83;;;12.23;;
3274;SDS011;1649;53.672;10.064;2024-01-30T13:28:05;16.53;;;11.00;;
3274;SDS011;1649;53.672;10.064;2024-01-30T13:30:30;18.77;;;12.60;;
3274;SDS011;1649;53.672;10.064;2024-01-30T13:32:56;18.63;;;12.07;;
3274;SDS011;1649;53.672;10.064;2024-01-30T13:35:22;20.63;;;12.33;;
3274;SDS011;1649;53.672;10.064;2024-01-30T13:37:47;18.80;;;10.90;;
3274;SDS011;1649;53.672;10.064;2024-01-30T13:40:13;19.27;;;12.07;;
3274;SDS011;1649;53.672;10.064;2024-01-30T13:42:39;18.43;;;11.90;;
3274;SDS011;1649;53.672;10.064;2024-01-30T13:45:05;19.10;;;11.20;;
3274;SDS011;1649;53.672;10.064;2024-01-30T13:47:31;18.63;;;11.70;;
3274;SDS011;1649;53.672;10.064;2024-01-30T13:49:56;21.57;;;12.33;;
3274;SDS011;1649;53.672;10.064;2024-01-30T13:52:22;22.60;;;12.57;;
3274;SDS011;1649;53.672;10.064;2024-01-30T13:54:47;20.80;;;13.20;;
3274;SDS011;1649;53.672;10.064;2024-01-30T13:57:13;25.17;;;13.57;;
3274;SDS011;1649;53.672;10.064;2024-01-30T13:59:38;20.17;;;12.50;;
3274;SDS011;1649;53.672;10.064;2024-01-30T14:02:04;21.20;;;12.17;;
3274;SDS011;1649;53.672;10.064;2024-01-30T14:04:30;20.53;;;12.53;;
3274;SDS011;1649;53.672;10.064;2024-01-30T14:06:56;20.67;;;12.03;;
3274;SDS011;1649;53.672;10.064;2024-01-30T14:09:21;20.63;;;11.73;;
3274;SDS011;1649;53.672;10.064;2024-01-30T14:11:47;19.97;;;12.23;;
3274;SDS011;1649;53.672;10.064;2024-01-30T14:14:12;22.67;;;11.73;;
3274;SDS011;1649;53.672;10.064;2024-01-30T14:16:38;21.83;;;13.13;;
3274;SDS011;1649;53.672;10.064;2024-01-30T14:19:03;19.70;;;12.17;;
3274;SDS011;1649;53.672;10.064;2024-01-30T14:21:29;21.67;;;12.63;;
3274;SDS011;1649;53.672;10.064;2024-01-30T14:23:54;25.40;;;12.07;;
3274;SDS011;1649;53.672;10.064;2024-01-30T14:26:20;25.37;;;14.43;;
3274;SDS011;1649;53.672;10.064;2024-01-30T14:28:46;21.93;;;13.57;;
3274;SDS011;1649;53.672;10.064;2024-01-30T14:31:11;23.50;;;14.17;;
3274;SDS011;1649;53.672;10.064;2024-01-30T14:33:37;24.33;;;14.97;;
3274;SDS011;1649;53.672;10.064;2024-01-30T14:36:03;23.60;;;12.90;;
3274;SDS011;1649;53.672;10.064;2024-01-30T14:38:28;21.63;;;12.93;;